createdAt,value
2023-01-05T00:00:11.437Z,6.61
2023-01-05T00:02:18.790Z,6.72
2023-01-05T00:04:26.707Z,6.59
2023-01-05T00:06:29.052Z,6.65
2023-01-05T00:08:36.713Z,6.55
2023-01-05T00:10:58.416Z,6.48
2023-01-05T00:13:19.483Z,6.44
2023-01-05T00:15:40.412Z,6.39
2023-01-05T00:18:01.365Z,6.36
2023-01-05T00:20:24.354Z,6.35
2023-01-05T00:22:31.535Z,6.27
2023-01-05T00:24:34.183Z,6.22
2023-01-05T00:26:36.546Z,6.25
2023-01-05T00:28:38.881Z,6.20
2023-01-05T00:30:44.000Z,6.19
2023-01-05T00:32:47.274Z,6.14
2023-01-05T00:34:50.804Z,6.15
2023-01-05T00:36:53.496Z,6.19
2023-01-05T00:38:55.802Z,6.20
2023-01-05T00:40:58.147Z,6.30
2023-01-05T00:43:01.508Z,6.23
2023-01-05T00:45:05.910Z,6.27
2023-01-05T00:47:08.374Z,6.38
2023-01-05T00:49:10.974Z,6.31
2023-01-05T00:51:13.339Z,6.46
2023-01-05T00:53:15.652Z,6.42
2023-01-05T00:55:18.402Z,6.30
2023-01-05T00:57:20.927Z,6.34
2023-01-05T00:59:23.378Z,6.35
2023-01-05T01:01:26.742Z,6.35
2023-01-05T01:03:29.515Z,6.43
2023-01-05T01:05:31.820Z,6.39
2023-01-05T01:07:34.428Z,6.53
2023-01-05T01:09:37.438Z,6.58
2023-01-05T01:11:40.415Z,6.61
2023-01-05T01:13:44.974Z,6.64
2023-01-05T01:15:47.305Z,6.70
2023-01-05T01:17:49.613Z,6.66
2023-01-05T01:19:52.517Z,6.47
2023-01-05T01:21:54.995Z,6.53
2023-01-05T01:23:57.344Z,6.40
2023-01-05T01:26:05.072Z,6.51
2023-01-05T01:28:07.475Z,6.55
2023-01-05T01:30:10.650Z,6.55
2023-01-05T01:32:13.223Z,6.75
2023-01-05T01:34:16.093Z,6.84
2023-01-05T01:36:18.447Z,6.82
2023-01-05T01:38:21.191Z,6.88
2023-01-05T01:40:24.044Z,6.68
2023-01-05T01:42:26.429Z,6.64
2023-01-05T01:44:47.856Z,6.50
2023-01-05T01:46:50.771Z,6.31
2023-01-05T01:48:58.081Z,6.18
2023-01-05T01:51:08.440Z,6.19
2023-01-05T01:53:23.084Z,6.10
2023-01-05T01:55:27.092Z,6.11
2023-01-05T01:57:29.946Z,6.07
2023-01-05T01:59:32.479Z,6.16
2023-01-05T02:01:35.343Z,6.11
2023-01-05T02:03:38.853Z,6.08
2023-01-05T02:05:41.371Z,6.07
2023-01-05T02:07:47.310Z,6.16
2023-01-05T02:09:49.916Z,6.17
2023-01-05T02:12:04.309Z,6.35
2023-01-05T02:14:26.630Z,6.32
2023-01-05T02:16:47.423Z,6.40
2023-01-05T02:18:56.195Z,6.49
2023-01-05T02:21:13.302Z,6.42
2023-01-05T02:23:28.455Z,6.38
2023-01-05T02:25:42.569Z,6.26
2023-01-05T02:28:27.454Z,6.13
2023-01-05T02:30:54.760Z,6.19
2023-01-05T02:33:13.596Z,6.13
2023-01-05T02:35:40.315Z,6.30
2023-01-05T02:37:59.422Z,6.16
2023-01-05T02:40:24.854Z,6.16
2023-01-05T02:42:31.503Z,6.11
2023-01-05T02:44:34.383Z,6.06
2023-01-05T02:46:37.531Z,6.16
2023-01-05T02:48:42.273Z,6.13
2023-01-05T02:51:06.330Z,6.19
2023-01-05T02:53:37.168Z,6.18
2023-01-05T02:55:45.441Z,6.40
2023-01-05T02:58:00.842Z,6.60
2023-01-05T03:00:04.010Z,6.51
2023-01-05T03:02:13.639Z,6.64
2023-01-05T03:04:48.394Z,6.70
2023-01-05T03:07:07.553Z,6.71
2023-01-05T03:09:10.090Z,6.68
2023-01-05T03:11:31.922Z,6.79
2023-01-05T03:13:43.713Z,6.76
2023-01-05T03:15:47.628Z,6.91
2023-01-05T03:17:58.147Z,6.72
2023-01-05T03:20:01.578Z,6.72
2023-01-05T03:22:29.820Z,6.81
2023-01-05T03:24:52.364Z,6.71
2023-01-05T03:27:13.952Z,6.63
2023-01-05T03:29:35.278Z,6.54
2023-01-05T03:32:15.545Z,6.65
2023-01-05T03:34:45.588Z,6.78
2023-01-05T03:36:53.779Z,6.85
2023-01-05T03:39:01.534Z,6.92
2023-01-05T03:41:11.817Z,6.90
2023-01-05T03:43:14.681Z,6.97
2023-01-05T03:45:19.298Z,6.87
2023-01-05T03:47:24.723Z,6.68
2023-01-05T03:49:27.660Z,6.60
2023-01-05T03:51:30.206Z,6.55
2023-01-05T03:53:32.864Z,6.56
2023-01-05T03:55:35.257Z,6.55
2023-01-05T03:57:37.740Z,6.52
2023-01-05T09:21:40.661Z,6.77
2023-01-05T09:23:49.534Z,6.77
2023-01-05T09:25:54.739Z,6.40
2023-01-05T09:27:58.937Z,6.48
2023-01-05T09:30:05.008Z,6.72
2023-01-05T09:32:12.416Z,6.80
2023-01-05T09:34:19.805Z,6.97
2023-01-05T09:36:28.620Z,7.03
2023-01-05T09:38:39.672Z,7.15
2023-01-05T09:41:01.789Z,7.15
2023-01-05T09:43:08.174Z,7.41
2023-01-05T09:45:16.385Z,7.68
2023-01-05T09:47:43.028Z,7.70
2023-01-05T09:49:55.308Z,8.08
2023-01-05T09:52:13.126Z,8.26
2023-01-05T09:54:18.713Z,8.32
2023-01-05T09:59:31.632Z,8.91
2023-01-05T10:01:38.245Z,8.64
2023-01-05T10:04:08.252Z,8.52
2023-01-05T10:06:15.983Z,8.65
2023-01-05T10:08:28.285Z,8.61
2023-01-05T10:11:09.763Z,8.85
2023-01-05T10:13:30.689Z,9.03
2023-01-05T10:15:42.605Z,8.89
2023-01-05T10:17:46.695Z,9.15
2023-01-05T10:19:50.803Z,9.35
2023-01-05T10:22:21.889Z,9.17
2023-01-05T10:24:33.138Z,9.34
2023-01-05T10:27:26.099Z,9.29
2023-01-05T10:30:15.827Z,9.15
2023-01-05T10:32:28.906Z,9.37
2023-01-05T10:34:31.167Z,8.97
2023-01-05T10:39:29.746Z,8.77
2023-01-05T10:41:41.556Z,8.91
2023-01-05T10:44:15.183Z,8.85
2023-01-05T10:46:41.125Z,8.72
2023-01-05T10:48:41.136Z,8.53
2023-01-05T10:50:45.097Z,8.00
2023-01-05T10:52:47.987Z,7.97
2023-01-05T10:54:59.009Z,8.04
2023-01-05T10:57:35.495Z,8.16
2023-01-05T10:59:55.699Z,8.28
2023-01-05T11:01:58.194Z,8.34
2023-01-05T11:04:34.862Z,8.23
2023-01-05T11:06:38.614Z,8.30
2023-01-05T11:08:41.017Z,8.36
2023-01-05T11:10:56.793Z,8.24
2023-01-05T11:13:31.545Z,8.40
2023-01-05T11:15:42.919Z,8.33
2023-01-05T11:17:45.755Z,8.70
2023-01-05T11:19:52.410Z,8.45
2023-01-05T11:22:01.429Z,8.52
2023-01-05T11:24:05.031Z,8.52
2023-01-05T11:26:19.863Z,8.56
2023-01-05T11:28:22.226Z,8.56
2023-01-05T11:30:25.532Z,8.65
2023-01-05T11:32:28.295Z,8.54
2023-01-05T11:34:46.130Z,8.40
2023-01-05T11:37:07.598Z,8.19
2023-01-05T11:39:26.846Z,8.07
2023-01-05T11:41:29.293Z,7.91
2023-01-05T11:43:33.096Z,7.88
2023-01-05T11:45:46.394Z,7.95
2023-01-05T11:47:50.566Z,7.83
2023-01-05T11:50:25.118Z,7.78
2023-01-05T11:52:34.852Z,7.69
2023-01-05T11:54:39.305Z,7.61
2023-01-05T11:56:41.629Z,7.74
2023-01-05T11:58:46.790Z,7.68
2023-01-05T12:01:15.475Z,7.77
2023-01-05T12:03:24.269Z,7.67
2023-01-05T12:05:59.380Z,7.79
2023-01-05T12:08:09.524Z,7.91
2023-01-05T12:10:31.135Z,8.22
2023-01-05T12:12:39.517Z,8.19
2023-01-05T12:14:44.805Z,8.11
2023-01-05T12:16:53.585Z,8.44
2023-01-05T12:19:16.894Z,8.33
2023-01-05T12:21:26.240Z,8.52
2023-01-05T12:23:50.163Z,8.33
2023-01-05T12:26:04.542Z,8.42
2023-01-05T12:28:35.794Z,8.34
2023-01-05T12:34:11.175Z,8.46
2023-01-05T12:37:04.838Z,8.33
2023-01-05T12:39:49.457Z,8.41
2023-01-05T12:42:22.373Z,8.27
2023-01-05T12:44:52.223Z,8.22
2023-01-05T12:47:16.146Z,8.23
2023-01-05T12:49:27.620Z,8.46
2023-01-05T12:51:37.816Z,8.38
2023-01-05T12:53:52.126Z,8.53
2023-01-05T12:55:57.423Z,8.69
2023-01-05T12:58:23.825Z,8.67
2023-01-05T13:00:31.264Z,8.85
2023-01-05T13:02:38.451Z,8.92
2023-01-05T13:04:54.312Z,8.91
2023-01-05T13:07:11.330Z,8.95
2023-01-05T13:09:21.528Z,9.17
2023-01-05T13:11:36.059Z,9.28
2023-01-05T13:13:38.802Z,9.38
2023-01-05T13:15:52.771Z,9.40
2023-01-05T13:17:58.710Z,9.35
2023-01-05T13:20:20.103Z,9.19
2023-01-05T13:22:23.858Z,9.22
2023-01-05T13:24:41.799Z,9.19
2023-01-05T13:26:44.451Z,9.22
2023-01-05T13:28:52.604Z,9.03
2023-01-05T13:31:22.949Z,9.05
2023-01-05T13:33:41.957Z,9.06
2023-01-05T13:36:07.350Z,9.16
2023-01-05T13:38:37.234Z,9.00
2023-01-05T13:40:52.638Z,9.01
2023-01-05T13:45:54.805Z,9.04
2023-01-05T13:48:13.128Z,9.07
2023-01-05T13:50:37.182Z,8.98
2023-01-05T13:53:04.655Z,8.95
2023-01-05T13:55:17.840Z,8.93
2023-01-05T13:57:26.925Z,8.91
2023-01-05T13:59:35.304Z,8.87
2023-01-05T14:01:45.642Z,8.99
2023-01-05T14:03:54.960Z,9.02
2023-01-05T14:06:00.543Z,8.95
2023-01-05T14:08:06.511Z,8.94
2023-01-05T14:10:27.920Z,8.92
2023-01-05T14:12:56.719Z,8.85
2023-01-05T14:15:01.551Z,8.69
2023-01-05T14:17:04.176Z,8.66
2023-01-05T14:19:47.069Z,8.63
2023-01-05T14:21:49.397Z,8.63
2023-01-05T14:23:56.283Z,8.62
2023-01-05T14:26:08.317Z,8.65
2023-01-05T14:28:19.855Z,8.74
2023-01-05T14:30:24.281Z,8.62
2023-01-05T14:32:41.168Z,8.78
2023-01-05T14:34:52.730Z,8.69
2023-01-05T14:36:58.169Z,8.64
2023-01-05T14:39:04.014Z,8.60
2023-01-05T14:41:15.660Z,8.60
2023-01-05T14:43:21.347Z,8.70
2023-01-05T14:45:33.468Z,8.69
2023-01-05T14:47:47.986Z,8.55
2023-01-05T14:49:55.988Z,8.61
2023-01-05T14:52:03.211Z,8.56
2023-01-05T14:54:06.171Z,8.57
2023-01-05T14:56:08.748Z,8.49
2023-01-05T14:58:12.829Z,8.36
2023-01-05T15:03:20.219Z,8.28
2023-01-05T15:05:23.171Z,8.28
2023-01-05T15:07:54.592Z,8.12
2023-01-05T15:10:17.549Z,8.22
2023-01-05T15:12:22.669Z,8.14
2023-01-05T15:14:35.444Z,8.28
2023-01-05T15:16:59.303Z,8.15
2023-01-05T15:19:29.595Z,8.09
2023-01-05T15:22:12.929Z,8.10
2023-01-05T15:24:39.213Z,8.13
2023-01-05T15:27:03.263Z,8.06
2023-01-05T15:29:17.468Z,8.02
2023-01-05T15:31:33.955Z,8.10
2023-01-05T15:34:06.697Z,8.08
2023-01-05T15:36:21.728Z,8.12
2023-01-05T15:38:27.396Z,8.16
2023-01-05T15:40:32.335Z,8.02
2023-01-05T15:42:42.048Z,8.06
2023-01-05T15:44:48.211Z,8.09
2023-01-05T15:46:51.948Z,8.10
2023-01-05T15:48:54.869Z,8.09
2023-01-05T15:50:58.827Z,8.04
2023-01-05T15:53:02.317Z,8.02
2023-01-05T15:55:15.260Z,8.07
2023-01-05T15:57:20.557Z,7.97
2023-01-05T15:59:25.560Z,7.93
2023-01-05T16:01:29.285Z,7.94
2023-01-05T16:03:37.116Z,7.91
2023-01-05T16:05:39.786Z,7.92
2023-01-05T16:07:53.256Z,7.99
2023-01-05T16:09:55.918Z,8.05
2023-01-05T16:12:23.410Z,8.00
2023-01-05T16:14:38.649Z,8.01
2023-01-05T16:16:52.886Z,7.98
2023-01-05T16:19:01.978Z,7.99
2023-01-05T16:21:33.267Z,7.96
2023-01-05T16:23:42.619Z,7.96
2023-01-05T16:25:57.752Z,7.92
2023-01-05T16:28:06.296Z,7.85
2023-01-05T16:30:34.833Z,7.86
2023-01-05T16:32:38.813Z,7.85
2023-01-05T16:34:41.255Z,7.86
2023-01-05T16:37:04.095Z,7.83
2023-01-05T16:39:36.059Z,7.80
2023-01-05T16:41:58.503Z,7.76
2023-01-05T16:44:02.448Z,7.77
2023-01-05T16:46:28.966Z,7.73
2023-01-05T16:48:40.143Z,7.79
2023-01-05T16:50:54.882Z,7.81
2023-01-05T16:53:10.599Z,7.90
2023-01-05T16:55:29.551Z,7.89
2023-01-05T16:57:43.318Z,8.00
2023-01-05T16:59:52.484Z,8.07
2023-01-05T17:01:55.715Z,8.14
2023-01-05T17:03:58.346Z,8.11
2023-01-05T17:06:01.494Z,8.09
2023-01-05T17:08:18.827Z,8.06
2023-01-05T17:10:26.214Z,7.99
2023-01-05T17:12:28.628Z,7.97
2023-01-05T17:14:30.953Z,7.92
2023-01-05T17:16:33.782Z,8.06
2023-01-05T17:18:36.269Z,8.11
2023-01-05T17:20:41.518Z,8.14
2023-01-05T17:22:44.330Z,8.04
2023-01-05T17:24:46.918Z,8.10
2023-01-05T17:26:49.574Z,8.11
2023-01-05T17:28:57.142Z,8.10
2023-01-05T17:30:59.643Z,8.09
2023-01-05T17:33:03.077Z,8.08
2023-01-05T17:37:17.325Z,8.17
2023-01-05T17:39:20.940Z,8.15
2023-01-05T17:41:23.559Z,8.24
2023-01-05T17:43:25.917Z,8.26
2023-01-05T17:45:28.663Z,8.38
2023-01-05T17:47:31.565Z,8.46
2023-01-05T17:49:33.966Z,8.52
2023-01-05T17:51:36.362Z,8.67
2023-01-05T17:53:40.238Z,8.64
2023-01-05T17:55:44.129Z,8.65
2023-01-05T17:57:47.402Z,8.68
2023-01-05T17:59:50.451Z,8.63
2023-01-05T18:01:54.714Z,8.67
2023-01-05T18:03:57.499Z,8.68
2023-01-05T18:06:01.414Z,8.64
2023-01-05T18:10:16.342Z,8.66
2023-01-05T18:12:18.823Z,8.68
2023-01-05T18:14:21.297Z,8.67
2023-01-05T18:16:24.990Z,8.67
2023-01-05T18:18:28.089Z,8.72
2023-01-05T18:20:30.483Z,8.72
2023-01-05T18:22:33.926Z,8.69
2023-01-05T18:24:36.805Z,8.68
2023-01-05T18:26:39.541Z,8.77
2023-01-05T18:28:42.351Z,8.69
2023-01-05T18:30:45.295Z,8.66
2023-01-05T18:32:48.611Z,8.69
2023-01-05T18:34:52.404Z,8.72
2023-01-05T18:37:01.827Z,8.75
2023-01-05T18:39:08.905Z,8.81
2023-01-05T18:41:12.626Z,8.76
2023-01-05T18:43:15.432Z,8.73
2023-01-05T18:45:26.168Z,8.72
2023-01-05T18:47:35.644Z,8.73
2023-01-05T18:49:38.130Z,8.66
2023-01-05T18:51:40.922Z,8.62
2023-01-05T18:53:44.218Z,8.62
2023-01-05T18:55:46.703Z,8.66
2023-01-05T18:57:49.725Z,8.70
2023-01-05T18:59:53.019Z,8.65
2023-01-05T19:01:55.667Z,8.60
2023-01-05T19:03:58.193Z,8.56
2023-01-05T19:06:05.753Z,8.58
2023-01-05T19:08:09.605Z,8.57
2023-01-05T19:10:12.072Z,8.58
2023-01-05T19:12:15.129Z,8.54
2023-01-05T19:14:19.249Z,8.56
2023-01-05T19:16:24.603Z,8.51
2023-01-05T19:18:27.885Z,8.50
2023-01-05T19:20:31.816Z,8.47
2023-01-05T19:22:34.956Z,8.51
2023-01-05T19:24:37.720Z,8.46
2023-01-05T19:26:40.936Z,8.45
2023-01-05T19:28:45.320Z,8.41
2023-01-05T19:30:48.759Z,8.40
2023-01-05T19:32:51.723Z,8.43
2023-01-05T19:34:54.085Z,8.43
2023-01-05T19:36:57.376Z,8.40
2023-01-05T19:39:14.828Z,8.46
2023-01-05T19:41:19.443Z,8.46
2023-01-05T19:43:23.078Z,8.52
2023-01-05T19:45:26.011Z,8.57
2023-01-05T19:47:28.763Z,8.57
2023-01-05T19:49:31.603Z,8.52
2023-01-05T19:51:34.631Z,8.56
2023-01-05T19:53:38.961Z,8.50
2023-01-05T19:55:41.997Z,8.48
2023-01-05T19:57:44.445Z,8.51
2023-01-05T19:59:47.100Z,8.53
2023-01-05T20:01:49.909Z,8.57
2023-01-05T20:03:55.549Z,8.53
2023-01-05T20:06:18.186Z,8.52
2023-01-05T20:08:20.777Z,8.42
2023-01-05T20:10:26.378Z,8.39
2023-01-05T20:12:29.117Z,8.47
2023-01-05T20:14:34.434Z,8.44
2023-01-05T20:16:38.399Z,8.46
2023-01-05T20:18:41.358Z,8.39
2023-01-05T20:20:43.859Z,8.36
2023-01-05T20:22:48.404Z,8.36
2023-01-05T20:24:51.153Z,8.34
2023-01-05T20:26:59.824Z,8.40
2023-01-05T20:29:05.004Z,8.44
2023-01-05T20:31:21.642Z,8.38
2023-01-05T20:33:25.428Z,8.36
2023-01-05T20:35:28.486Z,8.37
2023-01-05T20:37:32.676Z,8.41
2023-01-05T20:39:36.737Z,8.39
2023-01-05T20:41:41.911Z,8.43
2023-01-05T20:43:46.683Z,8.47
2023-01-05T20:45:49.751Z,8.44
2023-01-05T20:47:52.826Z,8.40
2023-01-05T20:49:55.143Z,8.41
2023-01-05T20:51:57.966Z,8.49
2023-01-05T20:54:05.980Z,8.55
2023-01-05T20:56:16.191Z,8.49
2023-01-05T20:58:18.603Z,8.57
2023-01-05T21:00:21.787Z,8.53
2023-01-05T21:02:24.816Z,8.58
2023-01-05T21:04:29.135Z,8.53
2023-01-05T21:06:32.749Z,8.44
2023-01-05T21:08:36.457Z,8.44
2023-01-05T21:10:39.344Z,8.36
2023-01-05T21:12:42.114Z,8.44
2023-01-05T21:14:44.554Z,8.54
2023-01-05T21:16:52.934Z,8.41
2023-01-05T21:18:55.904Z,8.45
2023-01-05T21:20:59.386Z,8.47
2023-01-05T21:23:01.857Z,8.51
2023-01-05T21:25:05.322Z,8.47
2023-01-05T21:27:07.866Z,8.44
2023-01-05T21:29:14.010Z,8.47
2023-01-05T21:31:19.991Z,8.50
2023-01-05T21:33:22.428Z,8.56
2023-01-05T21:35:24.768Z,8.64
2023-01-05T21:37:27.668Z,8.56
2023-01-05T21:39:30.035Z,8.60
2023-01-05T21:41:51.478Z,8.59
2023-01-05T21:43:54.437Z,8.60
2023-01-05T21:45:57.050Z,8.65
2023-01-05T21:47:59.519Z,8.66
2023-01-05T21:50:06.404Z,8.65
2023-01-05T21:52:29.300Z,8.60
2023-01-05T21:54:50.262Z,8.61
2023-01-05T21:56:58.844Z,8.60
2023-01-05T21:59:01.245Z,8.61
2023-01-05T22:01:03.621Z,8.53
2023-01-05T22:03:06.270Z,8.49
2023-01-05T22:05:08.785Z,8.50
2023-01-05T22:07:11.415Z,8.47
2023-01-05T22:09:14.394Z,8.47
2023-01-05T22:11:16.971Z,8.43
2023-01-05T22:13:19.370Z,8.46
2023-01-05T22:15:22.024Z,8.42
2023-01-05T22:17:24.480Z,8.39
2023-01-05T22:19:26.871Z,8.40
2023-01-05T22:21:31.102Z,8.31
2023-01-05T22:23:33.676Z,8.32
2023-01-05T22:25:36.808Z,8.31
2023-01-05T22:27:39.495Z,8.25
2023-01-05T22:29:41.809Z,8.18
2023-01-05T22:31:44.460Z,8.22
2023-01-05T22:33:49.454Z,8.21
2023-01-05T22:35:51.975Z,8.13
2023-01-05T22:37:55.894Z,8.10
2023-01-05T22:39:58.612Z,8.06
2023-01-05T22:42:00.917Z,8.04
2023-01-05T22:44:04.355Z,8.05
2023-01-05T22:46:11.305Z,8.05
2023-01-05T22:48:13.693Z,8.02
2023-01-05T22:50:16.124Z,7.99
2023-01-05T22:52:18.706Z,7.99
2023-01-05T22:54:21.239Z,7.98
2023-01-05T22:56:25.091Z,8.09
2023-01-05T22:58:28.232Z,8.11
2023-01-05T23:00:30.548Z,8.20
2023-01-05T23:02:33.135Z,8.31
2023-01-05T23:04:35.770Z,8.19
2023-01-05T23:06:38.510Z,8.11
2023-01-05T23:08:42.268Z,8.11
2023-01-05T23:10:44.920Z,8.11
2023-01-05T23:12:47.230Z,8.07
2023-01-05T23:14:49.590Z,8.10
2023-01-05T23:16:52.414Z,8.07
2023-01-05T23:18:55.390Z,8.20
2023-01-05T23:21:00.699Z,8.18
2023-01-05T23:23:05.483Z,8.22
2023-01-05T23:25:08.284Z,8.25
2023-01-05T23:27:11.156Z,8.29
2023-01-05T23:29:13.791Z,8.30
2023-01-05T23:31:18.868Z,8.38
2023-01-05T23:33:23.090Z,8.40
2023-01-05T23:35:25.705Z,8.35
2023-01-05T23:37:30.662Z,8.40
2023-01-05T23:39:32.952Z,8.44
2023-01-05T23:41:35.588Z,8.42
2023-01-05T23:43:39.765Z,8.48
2023-01-05T23:45:43.210Z,8.47
2023-01-05T23:47:45.906Z,8.43
2023-01-05T23:49:48.193Z,8.43
2023-01-05T23:51:50.556Z,8.45
2023-01-05T23:53:53.747Z,8.55
2023-01-05T23:56:17.155Z,8.45
2023-01-05T23:58:19.577Z,8.43
